Wellington, Missouri
Current Conditions -  °F | °C
As of 4:35 PM on Monday 26 Jan 2015 (Local Time) from KGPH Reporting Station
Clear Clear  
Wind Chill: 59°   Ceiling: Unl
Heat Index: 59°   Visibility: 10mi
Dew Point: 34°   Wind: 13mph
Humidity: 39%   Direction: 320°NW
Pressure: 29.91"   Gusts: 17mph
Location:  39.13°N, 93.98°W
Report Text: KGPH 262235Z AUTO 32011G15KT 10SM CLR 15/01 A2991 RMK AO2
Loading
Personal Weather Stations






























Interactive Weather Map New forecast layout! Learn more

10-Day Weather Forecast

Advertisements
Track Severe Weather on mobile